sensor_id;sensor_type;location;lat;lon;timestamp;P1;durP1;ratioP1;P2;durP2;ratioP2
54201;SDS011;40108;53.152;5.844;2022-11-20T00:01:08;21.13;;;12.20;;
54201;SDS011;40108;53.152;5.844;2022-11-20T00:03:39;20.13;;;12.33;;
54201;SDS011;40108;53.152;5.844;2022-11-20T00:06:10;18.27;;;11.82;;
54201;SDS011;40108;53.152;5.844;2022-11-20T00:08:37;17.50;;;11.52;;
54201;SDS011;40108;53.152;5.844;2022-11-20T00:11:13;17.55;;;12.15;;
54201;SDS011;40108;53.152;5.844;2022-11-20T00:13:41;17.00;;;12.27;;
54201;SDS011;40108;53.152;5.844;2022-11-20T00:16:11;20.13;;;12.38;;
54201;SDS011;40108;53.152;5.844;2022-11-20T00:18:38;20.40;;;11.75;;
54201;SDS011;40108;53.152;5.844;2022-11-20T00:21:05;18.60;;;11.90;;
54201;SDS011;40108;53.152;5.844;2022-11-20T00:23:33;16.60;;;11.80;;
54201;SDS011;40108;53.152;5.844;2022-11-20T00:26:03;18.83;;;11.57;;
54201;SDS011;40108;53.152;5.844;2022-11-20T00:28:33;21.60;;;12.60;;
54201;SDS011;40108;53.152;5.844;2022-11-20T00:33:33;17.15;;;11.25;;
54201;SDS011;40108;53.152;5.844;2022-11-20T00:36:00;19.35;;;12.13;;
54201;SDS011;40108;53.152;5.844;2022-11-20T00:38:27;17.83;;;11.48;;
54201;SDS011;40108;53.152;5.844;2022-11-20T00:40:56;19.05;;;12.00;;
54201;SDS011;40108;53.152;5.844;2022-11-20T00:43:23;16.98;;;10.95;;
54201;SDS011;40108;53.152;5.844;2022-11-20T00:45:49;17.75;;;11.27;;
54201;SDS011;40108;53.152;5.844;2022-11-20T00:48:15;17.90;;;10.65;;
54201;SDS011;40108;53.152;5.844;2022-11-20T00:50:41;21.02;;;11.65;;
54201;SDS011;40108;53.152;5.844;2022-11-20T00:53:07;21.60;;;11.80;;
54201;SDS011;40108;53.152;5.844;2022-11-20T00:55:32;17.58;;;11.68;;
54201;SDS011;40108;53.152;5.844;2022-11-20T00:57:58;17.27;;;11.50;;
54201;SDS011;40108;53.152;5.844;2022-11-20T01:00:24;19.67;;;12.05;;
54201;SDS011;40108;53.152;5.844;2022-11-20T01:02:50;18.20;;;12.20;;
54201;SDS011;40108;53.152;5.844;2022-11-20T01:05:15;18.67;;;11.95;;
54201;SDS011;40108;53.152;5.844;2022-11-20T01:07:41;18.80;;;11.48;;
54201;SDS011;40108;53.152;5.844;2022-11-20T01:10:07;21.67;;;12.95;;
54201;SDS011;40108;53.152;5.844;2022-11-20T01:12:33;19.05;;;11.65;;
54201;SDS011;40108;53.152;5.844;2022-11-20T01:14:58;21.52;;;13.18;;
54201;SDS011;40108;53.152;5.844;2022-11-20T01:17:24;25.38;;;12.70;;
54201;SDS011;40108;53.152;5.844;2022-11-20T01:19:50;18.95;;;11.65;;
54201;SDS011;40108;53.152;5.844;2022-11-20T01:22:16;22.50;;;12.70;;
54201;SDS011;40108;53.152;5.844;2022-11-20T01:24:42;20.17;;;11.95;;
54201;SDS011;40108;53.152;5.844;2022-11-20T01:27:07;19.20;;;12.35;;
54201;SDS011;40108;53.152;5.844;2022-11-20T01:29:33;20.08;;;12.60;;
54201;SDS011;40108;53.152;5.844;2022-11-20T01:31:59;17.58;;;11.93;;
54201;SDS011;40108;53.152;5.844;2022-11-20T01:34:24;18.90;;;12.57;;
54201;SDS011;40108;53.152;5.844;2022-11-20T01:36:51;16.65;;;11.25;;
54201;SDS011;40108;53.152;5.844;2022-11-20T01:39:19;20.45;;;12.02;;
54201;SDS011;40108;53.152;5.844;2022-11-20T01:41:50;19.42;;;12.30;;
54201;SDS011;40108;53.152;5.844;2022-11-20T01:47:34;19.63;;;11.70;;
54201;SDS011;40108;53.152;5.844;2022-11-20T01:50:05;20.15;;;11.85;;
54201;SDS011;40108;53.152;5.844;2022-11-20T01:52:45;19.08;;;11.35;;
54201;SDS011;40108;53.152;5.844;2022-11-20T01:55:19;18.40;;;11.45;;
54201;SDS011;40108;53.152;5.844;2022-11-20T01:57:48;18.85;;;12.13;;
54201;SDS011;40108;53.152;5.844;2022-11-20T02:00:14;19.25;;;12.50;;
54201;SDS011;40108;53.152;5.844;2022-11-20T02:02:43;17.08;;;11.70;;
54201;SDS011;40108;53.152;5.844;2022-11-20T02:05:22;19.23;;;12.40;;
54201;SDS011;40108;53.152;5.844;2022-11-20T02:07:49;16.48;;;11.60;;
54201;SDS011;40108;53.152;5.844;2022-11-20T02:10:16;20.25;;;12.05;;
54201;SDS011;40108;53.152;5.844;2022-11-20T02:12:42;20.85;;;12.43;;
54201;SDS011;40108;53.152;5.844;2022-11-20T02:15:26;16.90;;;11.80;;
54201;SDS011;40108;53.152;5.844;2022-11-20T02:17:51;18.48;;;12.40;;
54201;SDS011;40108;53.152;5.844;2022-11-20T02:20:18;22.48;;;12.48;;
54201;SDS011;40108;53.152;5.844;2022-11-20T02:22:54;21.80;;;13.48;;
54201;SDS011;40108;53.152;5.844;2022-11-20T02:25:28;23.58;;;13.48;;
54201;SDS011;40108;53.152;5.844;2022-11-20T02:27:57;23.55;;;13.70;;
54201;SDS011;40108;53.152;5.844;2022-11-20T02:30:23;30.45;;;16.00;;
54201;SDS011;40108;53.152;5.844;2022-11-20T02:32:49;34.42;;;18.67;;
54201;SDS011;40108;53.152;5.844;2022-11-20T02:37:43;26.02;;;14.38;;
54201;SDS011;40108;53.152;5.844;2022-11-20T02:40:12;23.52;;;13.88;;
54201;SDS011;40108;53.152;5.844;2022-11-20T02:42:38;21.27;;;13.73;;
54201;SDS011;40108;53.152;5.844;2022-11-20T02:45:04;21.10;;;12.68;;
54201;SDS011;40108;53.152;5.844;2022-11-20T02:47:30;17.05;;;11.85;;
54201;SDS011;40108;53.152;5.844;2022-11-20T02:49:56;18.60;;;12.32;;
54201;SDS011;40108;53.152;5.844;2022-11-20T02:52:22;19.52;;;12.25;;
54201;SDS011;40108;53.152;5.844;2022-11-20T02:54:48;19.27;;;11.98;;
54201;SDS011;40108;53.152;5.844;2022-11-20T02:57:14;18.98;;;10.80;;
54201;SDS011;40108;53.152;5.844;2022-11-20T02:59:40;19.92;;;12.30;;
54201;SDS011;40108;53.152;5.844;2022-11-20T03:02:05;18.65;;;12.07;;
54201;SDS011;40108;53.152;5.844;2022-11-20T03:04:31;18.98;;;11.85;;
54201;SDS011;40108;53.152;5.844;2022-11-20T03:06:57;19.38;;;12.23;;
54201;SDS011;40108;53.152;5.844;2022-11-20T03:09:23;19.60;;;11.35;;
54201;SDS011;40108;53.152;5.844;2022-11-20T03:11:48;16.00;;;11.35;;
54201;SDS011;40108;53.152;5.844;2022-11-20T03:14:14;15.73;;;10.77;;
54201;SDS011;40108;53.152;5.844;2022-11-20T03:16:40;16.80;;;10.70;;
54201;SDS011;40108;53.152;5.844;2022-11-20T03:19:06;15.65;;;11.50;;
54201;SDS011;40108;53.152;5.844;2022-11-20T03:21:35;16.00;;;10.93;;
54201;SDS011;40108;53.152;5.844;2022-11-20T03:24:01;17.25;;;10.55;;
54201;SDS011;40108;53.152;5.844;2022-11-20T03:26:27;16.20;;;10.88;;
54201;SDS011;40108;53.152;5.844;2022-11-20T03:28:54;17.48;;;11.23;;
54201;SDS011;40108;53.152;5.844;2022-11-20T03:31:22;16.67;;;10.68;;
54201;SDS011;40108;53.152;5.844;2022-11-20T03:33:54;17.80;;;11.15;;
54201;SDS011;40108;53.152;5.844;2022-11-20T03:36:21;17.95;;;11.20;;
54201;SDS011;40108;53.152;5.844;2022-11-20T03:38:47;17.70;;;10.70;;
54201;SDS011;40108;53.152;5.844;2022-11-20T03:41:15;16.35;;;11.27;;
54201;SDS011;40108;53.152;5.844;2022-11-20T03:43:46;16.08;;;10.82;;
54201;SDS011;40108;53.152;5.844;2022-11-20T03:46:16;16.92;;;10.35;;
54201;SDS011;40108;53.152;5.844;2022-11-20T03:48:42;15.13;;;10.30;;
54201;SDS011;40108;53.152;5.844;2022-11-20T03:51:09;16.95;;;11.45;;
54201;SDS011;40108;53.152;5.844;2022-11-20T03:53:39;17.55;;;11.23;;
54201;SDS011;40108;53.152;5.844;2022-11-20T03:56:06;16.63;;;11.32;;
54201;SDS011;40108;53.152;5.844;2022-11-20T03:58:33;16.25;;;11.25;;
54201;SDS011;40108;53.152;5.844;2022-11-20T04:01:14;16.88;;;10.23;;
54201;SDS011;40108;53.152;5.844;2022-11-20T04:03:44;15.10;;;10.68;;
54201;SDS011;40108;53.152;5.844;2022-11-20T04:06:11;16.83;;;11.55;;
54201;SDS011;40108;53.152;5.844;2022-11-20T04:08:48;18.20;;;11.75;;
54201;SDS011;40108;53.152;5.844;2022-11-20T04:11:18;19.95;;;11.60;;
54201;SDS011;40108;53.152;5.844;2022-11-20T04:13:47;17.58;;;11.27;;
54201;SDS011;40108;53.152;5.844;2022-11-20T04:16:21;16.27;;;11.00;;
54201;SDS011;40108;53.152;5.844;2022-11-20T04:18:47;18.20;;;11.70;;
54201;SDS011;40108;53.152;5.844;2022-11-20T04:21:17;16.33;;;11.10;;
54201;SDS011;40108;53.152;5.844;2022-11-20T04:23:43;17.25;;;11.77;;
54201;SDS011;40108;53.152;5.844;2022-11-20T04:26:10;17.35;;;10.75;;
54201;SDS011;40108;53.152;5.844;2022-11-20T04:28:37;16.63;;;10.82;;
54201;SDS011;40108;53.152;5.844;2022-11-20T04:31:10;16.08;;;10.43;;
54201;SDS011;40108;53.152;5.844;2022-11-20T04:33:40;15.38;;;10.55;;
54201;SDS011;40108;53.152;5.844;2022-11-20T04:36:16;17.95;;;10.85;;
54201;SDS011;40108;53.152;5.844;2022-11-20T04:38:49;16.75;;;11.27;;
54201;SDS011;40108;53.152;5.844;2022-11-20T04:41:17;17.75;;;11.88;;
54201;SDS011;40108;53.152;5.844;2022-11-20T04:43:46;20.77;;;12.07;;
54201;SDS011;40108;53.152;5.844;2022-11-20T04:46:17;17.23;;;11.90;;
54201;SDS011;40108;53.152;5.844;2022-11-20T04:48:44;17.42;;;11.88;;
54201;SDS011;40108;53.152;5.844;2022-11-20T04:51:10;18.20;;;11.02;;
54201;SDS011;40108;53.152;5.844;2022-11-20T04:53:36;17.17;;;11.25;;
54201;SDS011;40108;53.152;5.844;2022-11-20T04:56:02;17.17;;;12.20;;
54201;SDS011;40108;53.152;5.844;2022-11-20T04:58:30;18.80;;;11.90;;
54201;SDS011;40108;53.152;5.844;2022-11-20T05:01:02;17.98;;;11.50;;
54201;SDS011;40108;53.152;5.844;2022-11-20T05:03:29;16.05;;;11.68;;
54201;SDS011;40108;53.152;5.844;2022-11-20T05:05:55;19.77;;;11.75;;
54201;SDS011;40108;53.152;5.844;2022-11-20T05:08:21;17.48;;;11.55;;
54201;SDS011;40108;53.152;5.844;2022-11-20T05:10:47;15.73;;;10.73;;
54201;SDS011;40108;53.152;5.844;2022-11-20T05:13:13;15.05;;;10.48;;
54201;SDS011;40108;53.152;5.844;2022-11-20T05:15:38;15.60;;;11.02;;
54201;SDS011;40108;53.152;5.844;2022-11-20T05:18:04;14.98;;;10.68;;
54201;SDS011;40108;53.152;5.844;2022-11-20T05:20:30;14.18;;;10.32;;
54201;SDS011;40108;53.152;5.844;2022-11-20T05:22:58;15.65;;;10.65;;
54201;SDS011;40108;53.152;5.844;2022-11-20T05:25:24;15.80;;;10.65;;
54201;SDS011;40108;53.152;5.844;2022-11-20T05:27:50;14.57;;;10.05;;
54201;SDS011;40108;53.152;5.844;2022-11-20T05:30:16;18.13;;;10.15;;
54201;SDS011;40108;53.152;5.844;2022-11-20T05:32:41;17.02;;;10.45;;
54201;SDS011;40108;53.152;5.844;2022-11-20T05:35:07;16.25;;;10.65;;
54201;SDS011;40108;53.152;5.844;2022-11-20T05:37:33;15.35;;;10.35;;
54201;SDS011;40108;53.152;5.844;2022-11-20T05:39:59;15.00;;;9.95;;
54201;SDS011;40108;53.152;5.844;2022-11-20T05:42:24;14.95;;;10.18;;
54201;SDS011;40108;53.152;5.844;2022-11-20T05:44:59;15.07;;;10.13;;
54201;SDS011;40108;53.152;5.844;2022-11-20T05:47:27;16.38;;;10.45;;
54201;SDS011;40108;53.152;5.844;2022-11-20T05:49:57;15.07;;;10.45;;
54201;SDS011;40108;53.152;5.844;2022-11-20T05:52:24;16.25;;;10.38;;
54201;SDS011;40108;53.152;5.844;2022-11-20T05:54:49;14.43;;;10.25;;
54201;SDS011;40108;53.152;5.844;2022-11-20T05:57:15;19.13;;;11.88;;
54201;SDS011;40108;53.152;5.844;2022-11-20T05:59:41;20.38;;;12.55;;
54201;SDS011;40108;53.152;5.844;2022-11-20T06:02:07;18.95;;;11.82;;
54201;SDS011;40108;53.152;5.844;2022-11-20T06:04:33;24.00;;;11.98;;
54201;SDS011;40108;53.152;5.844;2022-11-20T06:06:59;17.88;;;11.40;;
54201;SDS011;40108;53.152;5.844;2022-11-20T06:09:24;18.52;;;11.55;;
54201;SDS011;40108;53.152;5.844;2022-11-20T06:11:50;17.35;;;11.40;;
54201;SDS011;40108;53.152;5.844;2022-11-20T06:14:16;18.00;;;12.52;;
54201;SDS011;40108;53.152;5.844;2022-11-20T06:16:41;20.67;;;13.73;;
54201;SDS011;40108;53.152;5.844;2022-11-20T06:19:07;25.40;;;16.95;;
54201;SDS011;40108;53.152;5.844;2022-11-20T06:21:33;28.92;;;15.82;;
54201;SDS011;40108;53.152;5.844;2022-11-20T06:23:59;39.17;;;17.63;;
54201;SDS011;40108;53.152;5.844;2022-11-20T06:26:25;31.17;;;15.55;;
54201;SDS011;40108;53.152;5.844;2022-11-20T06:28:52;25.13;;;14.20;;
54201;SDS011;40108;53.152;5.844;2022-11-20T06:31:22;21.50;;;13.70;;
54201;SDS011;40108;53.152;5.844;2022-11-20T06:33:50;28.23;;;14.05;;
54201;SDS011;40108;53.152;5.844;2022-11-20T06:36:17;18.55;;;12.48;;
54201;SDS011;40108;53.152;5.844;2022-11-20T06:38:45;17.75;;;11.68;;
54201;SDS011;40108;53.152;5.844;2022-11-20T06:41:12;21.85;;;12.88;;
54201;SDS011;40108;53.152;5.844;2022-11-20T06:43:43;20.10;;;12.40;;
54201;SDS011;40108;53.152;5.844;2022-11-20T06:46:09;21.17;;;12.50;;
54201;SDS011;40108;53.152;5.844;2022-11-20T06:48:36;22.15;;;12.73;;
54201;SDS011;40108;53.152;5.844;2022-11-20T06:51:02;19.52;;;12.10;;
54201;SDS011;40108;53.152;5.844;2022-11-20T06:53:30;20.65;;;12.45;;
54201;SDS011;40108;53.152;5.844;2022-11-20T06:55:56;22.40;;;12.70;;
54201;SDS011;40108;53.152;5.844;2022-11-20T06:58:28;20.25;;;12.15;;
54201;SDS011;40108;53.152;5.844;2022-11-20T07:00:59;18.83;;;12.57;;
54201;SDS011;40108;53.152;5.844;2022-11-20T07:03:26;17.50;;;12.07;;
54201;SDS011;40108;53.152;5.844;2022-11-20T07:05:54;19.52;;;12.35;;
54201;SDS011;40108;53.152;5.844;2022-11-20T07:08:23;20.83;;;12.90;;
54201;SDS011;40108;53.152;5.844;2022-11-20T07:10:49;19.30;;;12.30;;
54201;SDS011;40108;53.152;5.844;2022-11-20T07:13:15;19.70;;;12.63;;
54201;SDS011;40108;53.152;5.844;2022-11-20T07:15:41;17.77;;;12.20;;
54201;SDS011;40108;53.152;5.844;2022-11-20T07:18:06;22.15;;;12.32;;
54201;SDS011;40108;53.152;5.844;2022-11-20T07:20:32;20.05;;;12.93;;
54201;SDS011;40108;53.152;5.844;2022-11-20T07:22:58;19.88;;;13.43;;
54201;SDS011;40108;53.152;5.844;2022-11-20T07:25:25;21.08;;;13.68;;
54201;SDS011;40108;53.152;5.844;2022-11-20T07:27:51;22.35;;;13.82;;
54201;SDS011;40108;53.152;5.844;2022-11-20T07:30:17;21.70;;;13.02;;
54201;SDS011;40108;53.152;5.844;2022-11-20T07:32:47;22.17;;;14.27;;
54201;SDS011;40108;53.152;5.844;2022-11-20T07:35:15;19.73;;;13.15;;
54201;SDS011;40108;53.152;5.844;2022-11-20T07:37:41;23.83;;;14.05;;
54201;SDS011;40108;53.152;5.844;2022-11-20T07:40:07;24.95;;;13.45;;
54201;SDS011;40108;53.152;5.844;2022-11-20T07:42:33;21.25;;;13.38;;
54201;SDS011;40108;53.152;5.844;2022-11-20T07:44:58;21.73;;;13.98;;
54201;SDS011;40108;53.152;5.844;2022-11-20T07:47:24;21.77;;;13.70;;
54201;SDS011;40108;53.152;5.844;2022-11-20T07:49:50;23.88;;;13.68;;
54201;SDS011;40108;53.152;5.844;2022-11-20T07:52:15;20.58;;;13.95;;
54201;SDS011;40108;53.152;5.844;2022-11-20T07:54:41;22.00;;;13.13;;
54201;SDS011;40108;53.152;5.844;2022-11-20T07:57:07;18.27;;;11.85;;
54201;SDS011;40108;53.152;5.844;2022-11-20T07:59:32;20.33;;;13.70;;
54201;SDS011;40108;53.152;5.844;2022-11-20T08:01:58;17.90;;;11.85;;
54201;SDS011;40108;53.152;5.844;2022-11-20T08:04:24;21.80;;;14.02;;
54201;SDS011;40108;53.152;5.844;2022-11-20T08:06:52;20.83;;;11.10;;
54201;SDS011;40108;53.152;5.844;2022-11-20T08:09:18;22.95;;;13.50;;
54201;SDS011;40108;53.152;5.844;2022-11-20T08:11:44;20.45;;;13.25;;
54201;SDS011;40108;53.152;5.844;2022-11-20T08:14:28;20.30;;;13.80;;
54201;SDS011;40108;53.152;5.844;2022-11-20T08:16:54;19.90;;;12.30;;
54201;SDS011;40108;53.152;5.844;2022-11-20T08:19:19;18.92;;;12.25;;
54201;SDS011;40108;53.152;5.844;2022-11-20T08:21:45;19.83;;;11.00;;
54201;SDS011;40108;53.152;5.844;2022-11-20T08:24:11;16.88;;;10.60;;
54201;SDS011;40108;53.152;5.844;2022-11-20T08:26:38;18.92;;;11.73;;
54201;SDS011;40108;53.152;5.844;2022-11-20T08:29:04;17.63;;;11.32;;
54201;SDS011;40108;53.152;5.844;2022-11-20T08:31:31;23.10;;;13.07;;
54201;SDS011;40108;53.152;5.844;2022-11-20T08:33:57;22.00;;;13.35;;
54201;SDS011;40108;53.152;5.844;2022-11-20T08:36:23;21.13;;;13.35;;
54201;SDS011;40108;53.152;5.844;2022-11-20T08:38:51;19.20;;;13.05;;
54201;SDS011;40108;53.152;5.844;2022-11-20T08:41:24;17.58;;;11.77;;
54201;SDS011;40108;53.152;5.844;2022-11-20T08:43:53;20.88;;;13.07;;
54201;SDS011;40108;53.152;5.844;2022-11-20T08:46:25;20.97;;;14.23;;
54201;SDS011;40108;53.152;5.844;2022-11-20T08:48:51;20.13;;;14.07;;
54201;SDS011;40108;53.152;5.844;2022-11-20T08:51:18;20.52;;;12.30;;
54201;SDS011;40108;53.152;5.844;2022-11-20T08:53:44;18.70;;;13.35;;
54201;SDS011;40108;53.152;5.844;2022-11-20T08:56:10;20.63;;;12.35;;
54201;SDS011;40108;53.152;5.844;2022-11-20T08:58:36;18.95;;;12.90;;
54201;SDS011;40108;53.152;5.844;2022-11-20T09:01:03;18.65;;;11.75;;
54201;SDS011;40108;53.152;5.844;2022-11-20T09:03:29;17.63;;;12.52;;
54201;SDS011;40108;53.152;5.844;2022-11-20T09:06:01;18.95;;;12.38;;
54201;SDS011;40108;53.152;5.844;2022-11-20T09:08:30;19.73;;;11.48;;
54201;SDS011;40108;53.152;5.844;2022-11-20T09:10:57;21.42;;;12.48;;
54201;SDS011;40108;53.152;5.844;2022-11-20T09:13:23;23.10;;;13.80;;
54201;SDS011;40108;53.152;5.844;2022-11-20T09:15:57;27.95;;;14.95;;
54201;SDS011;40108;53.152;5.844;2022-11-20T09:18:25;17.80;;;11.82;;
54201;SDS011;40108;53.152;5.844;2022-11-20T09:20:51;17.13;;;12.57;;
54201;SDS011;40108;53.152;5.844;2022-11-20T09:23:21;16.45;;;12.55;;
54201;SDS011;40108;53.152;5.844;2022-11-20T09:25:47;17.60;;;12.48;;
54201;SDS011;40108;53.152;5.844;2022-11-20T09:28:13;17.48;;;11.63;;
54201;SDS011;40108;53.152;5.844;2022-11-20T09:30:41;17.85;;;12.27;;
54201;SDS011;40108;53.152;5.844;2022-11-20T09:33:07;18.00;;;11.57;;
54201;SDS011;40108;53.152;5.844;2022-11-20T09:35:33;16.58;;;11.57;;
54201;SDS011;40108;53.152;5.844;2022-11-20T09:38:03;17.20;;;11.77;;
54201;SDS011;40108;53.152;5.844;2022-11-20T09:40:30;23.13;;;13.32;;
54201;SDS011;40108;53.152;5.844;2022-11-20T09:51:42;18.23;;;12.25;;
54201;SDS011;40108;53.152;5.844;2022-11-20T09:54:18;17.43;;;12.83;;
54201;SDS011;40108;53.152;5.844;2022-11-20T09:56:58;15.73;;;11.10;;
54201;SDS011;40108;53.152;5.844;2022-11-20T10:01:51;15.27;;;11.30;;
54201;SDS011;40108;53.152;5.844;2022-11-20T10:04:19;23.40;;;14.20;;
54201;SDS011;40108;53.152;5.844;2022-11-20T10:09:24;20.25;;;14.25;;
54201;SDS011;40108;53.152;5.844;2022-11-20T10:14:38;20.52;;;12.90;;
54201;SDS011;40108;53.152;5.844;2022-11-20T10:20:40;26.30;;;14.07;;
54201;SDS011;40108;53.152;5.844;2022-11-20T10:31:40;49.03;;;27.70;;
54201;SDS011;40108;53.152;5.844;2022-11-20T10:34:17;34.58;;;21.55;;
54201;SDS011;40108;53.152;5.844;2022-11-20T10:36:50;15.88;;;11.30;;
54201;SDS011;40108;53.152;5.844;2022-11-20T10:39:31;12.93;;;9.27;;
54201;SDS011;40108;53.152;5.844;2022-11-20T10:42:01;12.65;;;9.60;;
54201;SDS011;40108;53.152;5.844;2022-11-20T10:44:27;11.60;;;8.93;;
54201;SDS011;40108;53.152;5.844;2022-11-20T10:47:18;11.75;;;8.90;;
54201;SDS011;40108;53.152;5.844;2022-11-20T10:49:46;11.50;;;9.10;;
54201;SDS011;40108;53.152;5.844;2022-11-20T10:52:20;11.00;;;8.57;;
54201;SDS011;40108;53.152;5.844;2022-11-20T10:57:54;14.57;;;8.45;;
54201;SDS011;40108;53.152;5.844;2022-11-20T11:00:30;10.18;;;7.10;;
54201;SDS011;40108;53.152;5.844;2022-11-20T11:02:56;11.27;;;7.60;;
54201;SDS011;40108;53.152;5.844;2022-11-20T11:08:17;18.35;;;9.05;;
54201;SDS011;40108;53.152;5.844;2022-11-20T11:10:48;17.73;;;9.23;;
54201;SDS011;40108;53.152;5.844;2022-11-20T11:13:19;11.10;;;8.43;;
54201;SDS011;40108;53.152;5.844;2022-11-20T11:15:45;7.47;;;4.72;;
54201;SDS011;40108;53.152;5.844;2022-11-20T11:18:11;7.35;;;5.63;;
54201;SDS011;40108;53.152;5.844;2022-11-20T11:20:53;5.65;;;4.75;;
54201;SDS011;40108;53.152;5.844;2022-11-20T11:26:06;6.47;;;5.07;;
54201;SDS011;40108;53.152;5.844;2022-11-20T11:28:52;7.28;;;5.68;;
54201;SDS011;40108;53.152;5.844;2022-11-20T11:31:26;8.48;;;6.38;;
54201;SDS011;40108;53.152;5.844;2022-11-20T11:34:05;8.50;;;7.13;;
54201;SDS011;40108;53.152;5.844;2022-11-20T11:36:39;9.93;;;7.20;;
54201;SDS011;40108;53.152;5.844;2022-11-20T11:39:08;8.10;;;6.63;;
54201;SDS011;40108;53.152;5.844;2022-11-20T11:41:40;9.30;;;6.45;;
54201;SDS011;40108;53.152;5.844;2022-11-20T11:44:17;8.57;;;5.75;;
54201;SDS011;40108;53.152;5.844;2022-11-20T11:47:05;5.80;;;4.20;;
54201;SDS011;40108;53.152;5.844;2022-11-20T11:55:42;6.53;;;5.65;;
54201;SDS011;40108;53.152;5.844;2022-11-20T12:04:04;7.70;;;5.85;;
54201;SDS011;40108;53.152;5.844;2022-11-20T12:06:31;7.47;;;6.25;;
54201;SDS011;40108;53.152;5.844;2022-11-20T12:09:02;7.28;;;5.43;;
54201;SDS011;40108;53.152;5.844;2022-11-20T12:14:19;9.10;;;6.85;;
54201;SDS011;40108;53.152;5.844;2022-11-20T12:16:52;9.50;;;7.05;;
54201;SDS011;40108;53.152;5.844;2022-11-20T12:19:20;11.43;;;5.63;;
54201;SDS011;40108;53.152;5.844;2022-11-20T12:22:02;8.30;;;6.90;;
54201;SDS011;40108;53.152;5.844;2022-11-20T12:30:12;8.23;;;5.45;;
54201;SDS011;40108;53.152;5.844;2022-11-20T12:35:17;9.32;;;6.57;;
54201;SDS011;40108;53.152;5.844;2022-11-20T12:43:45;7.30;;;5.68;;
54201;SDS011;40108;53.152;5.844;2022-11-20T12:49:15;7.65;;;6.03;;
54201;SDS011;40108;53.152;5.844;2022-11-20T12:57:53;6.75;;;5.60;;
54201;SDS011;40108;53.152;5.844;2022-11-20T13:00:26;8.20;;;5.10;;
54201;SDS011;40108;53.152;5.844;2022-11-20T13:03:05;8.80;;;6.22;;
54201;SDS011;40108;53.152;5.844;2022-11-20T13:08:01;9.45;;;7.15;;
54201;SDS011;40108;53.152;5.844;2022-11-20T13:10:35;6.47;;;5.50;;
54201;SDS011;40108;53.152;5.844;2022-11-20T13:13:21;8.93;;;5.95;;
54201;SDS011;40108;53.152;5.844;2022-11-20T13:19:02;6.88;;;5.20;;
54201;SDS011;40108;53.152;5.844;2022-11-20T13:21:42;8.77;;;5.78;;
54201;SDS011;40108;53.152;5.844;2022-11-20T13:29:33;7.47;;;6.13;;
54201;SDS011;40108;53.152;5.844;2022-11-20T13:32:04;10.45;;;6.88;;
54201;SDS011;40108;53.152;5.844;2022-11-20T13:34:36;10.15;;;7.00;;
54201;SDS011;40108;53.152;5.844;2022-11-20T13:37:02;8.85;;;6.32;;
54201;SDS011;40108;53.152;5.844;2022-11-20T13:39:32;12.75;;;7.40;;
54201;SDS011;40108;53.152;5.844;2022-11-20T13:42:00;8.00;;;5.95;;
54201;SDS011;40108;53.152;5.844;2022-11-20T13:44:42;12.20;;;7.75;;
54201;SDS011;40108;53.152;5.844;2022-11-20T13:47:21;10.32;;;7.40;;
54201;SDS011;40108;53.152;5.844;2022-11-20T13:49:49;11.65;;;7.20;;
54201;SDS011;40108;53.152;5.844;2022-11-20T14:00:47;12.63;;;8.55;;
54201;SDS011;40108;53.152;5.844;2022-11-20T14:03:22;10.88;;;7.88;;
54201;SDS011;40108;53.152;5.844;2022-11-20T14:05:59;12.40;;;8.50;;
54201;SDS011;40108;53.152;5.844;2022-11-20T14:08:33;12.15;;;9.10;;
54201;SDS011;40108;53.152;5.844;2022-11-20T14:11:13;12.18;;;8.95;;
54201;SDS011;40108;53.152;5.844;2022-11-20T14:13:52;18.00;;;11.30;;
54201;SDS011;40108;53.152;5.844;2022-11-20T14:16:26;11.95;;;9.00;;
54201;SDS011;40108;53.152;5.844;2022-11-20T14:18:54;12.18;;;8.95;;
54201;SDS011;40108;53.152;5.844;2022-11-20T14:21:28;12.23;;;8.38;;
54201;SDS011;40108;53.152;5.844;2022-11-20T14:24:09;11.93;;;8.70;;
54201;SDS011;40108;53.152;5.844;2022-11-20T14:26:37;11.77;;;7.85;;
54201;SDS011;40108;53.152;5.844;2022-11-20T14:29:17;11.20;;;7.63;;
54201;SDS011;40108;53.152;5.844;2022-11-20T14:31:46;11.23;;;7.50;;
54201;SDS011;40108;53.152;5.844;2022-11-20T14:34:24;10.90;;;8.98;;
54201;SDS011;40108;53.152;5.844;2022-11-20T14:36:53;15.25;;;9.55;;
54201;SDS011;40108;53.152;5.844;2022-11-20T14:39:33;12.93;;;8.65;;
54201;SDS011;40108;53.152;5.844;2022-11-20T14:42:00;11.90;;;8.40;;
54201;SDS011;40108;53.152;5.844;2022-11-20T14:44:27;12.27;;;8.63;;
54201;SDS011;40108;53.152;5.844;2022-11-20T14:46:56;12.70;;;8.55;;
54201;SDS011;40108;53.152;5.844;2022-11-20T14:49:25;11.82;;;8.75;;
54201;SDS011;40108;53.152;5.844;2022-11-20T14:51:58;11.48;;;8.57;;
54201;SDS011;40108;53.152;5.844;2022-11-20T14:54:26;9.60;;;7.85;;
54201;SDS011;40108;53.152;5.844;2022-11-20T14:56:55;10.32;;;7.78;;
54201;SDS011;40108;53.152;5.844;2022-11-20T14:59:27;11.07;;;7.70;;
54201;SDS011;40108;53.152;5.844;2022-11-20T15:02:04;10.10;;;7.63;;
54201;SDS011;40108;53.152;5.844;2022-11-20T15:04:43;11.20;;;8.15;;
54201;SDS011;40108;53.152;5.844;2022-11-20T15:07:10;10.30;;;7.72;;
54201;SDS011;40108;53.152;5.844;2022-11-20T15:09:36;11.35;;;8.77;;
54201;SDS011;40108;53.152;5.844;2022-11-20T15:12:02;10.82;;;7.80;;
54201;SDS011;40108;53.152;5.844;2022-11-20T15:14:29;11.73;;;7.50;;
54201;SDS011;40108;53.152;5.844;2022-11-20T15:16:57;13.65;;;8.45;;
54201;SDS011;40108;53.152;5.844;2022-11-20T15:19:25;13.25;;;8.40;;
54201;SDS011;40108;53.152;5.844;2022-11-20T15:21:51;11.05;;;7.45;;
54201;SDS011;40108;53.152;5.844;2022-11-20T15:24:18;10.10;;;7.85;;
54201;SDS011;40108;53.152;5.844;2022-11-20T15:26:44;9.25;;;7.03;;
54201;SDS011;40108;53.152;5.844;2022-11-20T15:29:14;12.23;;;7.80;;
54201;SDS011;40108;53.152;5.844;2022-11-20T15:31:44;11.98;;;8.05;;
54201;SDS011;40108;53.152;5.844;2022-11-20T15:34:10;20.30;;;11.80;;
54201;SDS011;40108;53.152;5.844;2022-11-20T15:36:38;17.67;;;12.25;;
54201;SDS011;40108;53.152;5.844;2022-11-20T15:39:04;19.45;;;12.25;;
54201;SDS011;40108;53.152;5.844;2022-11-20T15:41:32;15.55;;;10.68;;
54201;SDS011;40108;53.152;5.844;2022-11-20T15:44:01;14.55;;;10.82;;
54201;SDS011;40108;53.152;5.844;2022-11-20T15:46:28;17.42;;;12.38;;
54201;SDS011;40108;53.152;5.844;2022-11-20T15:48:59;15.25;;;11.32;;
54201;SDS011;40108;53.152;5.844;2022-11-20T15:51:35;16.00;;;11.35;;
54201;SDS011;40108;53.152;5.844;2022-11-20T15:54:12;16.48;;;10.65;;
54201;SDS011;40108;53.152;5.844;2022-11-20T15:56:38;13.13;;;10.13;;
54201;SDS011;40108;53.152;5.844;2022-11-20T15:59:04;15.45;;;10.63;;
54201;SDS011;40108;53.152;5.844;2022-11-20T16:01:29;16.95;;;11.60;;
54201;SDS011;40108;53.152;5.844;2022-11-20T16:03:55;17.13;;;12.57;;
54201;SDS011;40108;53.152;5.844;2022-11-20T16:06:21;16.90;;;12.15;;
54201;SDS011;40108;53.152;5.844;2022-11-20T16:08:47;19.35;;;12.82;;
54201;SDS011;40108;53.152;5.844;2022-11-20T16:11:13;14.48;;;10.68;;
54201;SDS011;40108;53.152;5.844;2022-11-20T16:13:41;11.73;;;9.70;;
54201;SDS011;40108;53.152;5.844;2022-11-20T16:16:27;12.52;;;9.38;;
54201;SDS011;40108;53.152;5.844;2022-11-20T16:18:56;11.55;;;9.48;;